sensor_id;sensor_type;location;lat;lon;timestamp;temperature;humidity
9971;DHT22;5026;51.494;11.974;2022-12-18T00:01:05;-5.40;99.90
9971;DHT22;5026;51.494;11.974;2022-12-18T00:06:08;-5.30;99.90
9971;DHT22;5026;51.494;11.974;2022-12-18T00:11:04;-5.60;99.90
9971;DHT22;5026;51.494;11.974;2022-12-18T00:16:02;-6.30;99.90
9971;DHT22;5026;51.494;11.974;2022-12-18T00:18:29;-6.20;99.90
9971;DHT22;5026;51.494;11.974;2022-12-18T00:20:58;-6.20;99.90
9971;DHT22;5026;51.494;11.974;2022-12-18T00:23:27;-6.20;99.90
9971;DHT22;5026;51.494;11.974;2022-12-18T00:33:16;-6.30;99.90
9971;DHT22;5026;51.494;11.974;2022-12-18T00:40:40;-6.20;99.90
9971;DHT22;5026;51.494;11.974;2022-12-18T00:48:02;-5.90;99.90
9971;DHT22;5026;51.494;11.974;2022-12-18T00:52:56;-6.00;99.90
9971;DHT22;5026;51.494;11.974;2022-12-18T00:57:52;-6.00;99.90
9971;DHT22;5026;51.494;11.974;2022-12-18T01:00:20;-6.10;99.90
9971;DHT22;5026;51.494;11.974;2022-12-18T01:05:14;-6.30;99.90
9971;DHT22;5026;51.494;11.974;2022-12-18T01:10:12;-6.20;99.90
9971;DHT22;5026;51.494;11.974;2022-12-18T01:12:39;-6.30;99.90
9971;DHT22;5026;51.494;11.974;2022-12-18T01:15:09;-6.20;99.90
9971;DHT22;5026;51.494;11.974;2022-12-18T01:20:04;-6.10;99.90
9971;DHT22;5026;51.494;11.974;2022-12-18T01:32:22;-6.80;99.90
9971;DHT22;5026;51.494;11.974;2022-12-18T01:37:16;-7.10;99.90
9971;DHT22;5026;51.494;11.974;2022-12-18T01:42:13;-6.80;99.90
9971;DHT22;5026;51.494;11.974;2022-12-18T01:44:57;-6.70;99.90
9971;DHT22;5026;51.494;11.974;2022-12-18T01:47:28;-6.50;99.90
9971;DHT22;5026;51.494;11.974;2022-12-18T01:49:57;-6.50;99.90
9971;DHT22;5026;51.494;11.974;2022-12-18T01:52:27;-6.30;99.90
9971;DHT22;5026;51.494;11.974;2022-12-18T01:54:55;-6.20;99.90
9971;DHT22;5026;51.494;11.974;2022-12-18T01:57:24;-6.10;99.90
9971;DHT22;5026;51.494;11.974;2022-12-18T01:59:53;-6.10;99.90
9971;DHT22;5026;51.494;11.974;2022-12-18T02:04:52;-6.60;99.90
9971;DHT22;5026;51.494;11.974;2022-12-18T02:07:24;-6.60;99.90
9971;DHT22;5026;51.494;11.974;2022-12-18T02:09:58;-6.50;99.90
9971;DHT22;5026;51.494;11.974;2022-12-18T02:12:29;-6.40;99.90
9971;DHT22;5026;51.494;11.974;2022-12-18T02:15:05;-6.40;99.90
9971;DHT22;5026;51.494;11.974;2022-12-18T02:17:36;-6.30;99.90
9971;DHT22;5026;51.494;11.974;2022-12-18T02:20:12;-6.20;99.90
9971;DHT22;5026;51.494;11.974;2022-12-18T02:22:45;-6.20;99.90
9971;DHT22;5026;51.494;11.974;2022-12-18T02:25:24;-6.30;99.90
9971;DHT22;5026;51.494;11.974;2022-12-18T02:27:57;-6.30;99.90
9971;DHT22;5026;51.494;11.974;2022-12-18T02:32:54;-6.90;99.90
9971;DHT22;5026;51.494;11.974;2022-12-18T02:35:25;-7.40;99.90
9971;DHT22;5026;51.494;11.974;2022-12-18T02:37:54;-7.40;99.90
9971;DHT22;5026;51.494;11.974;2022-12-18T02:40:24;-7.40;99.90
9971;DHT22;5026;51.494;11.974;2022-12-18T02:45:20;-7.40;99.90
9971;DHT22;5026;51.494;11.974;2022-12-18T02:47:48;-6.70;99.90
9971;DHT22;5026;51.494;11.974;2022-12-18T02:50:20;-7.00;99.90
9971;DHT22;5026;51.494;11.974;2022-12-18T02:52:59;-6.90;99.90
9971;DHT22;5026;51.494;11.974;2022-12-18T02:55:35;-6.80;99.90
9971;DHT22;5026;51.494;11.974;2022-12-18T02:58:10;-6.80;99.90
9971;DHT22;5026;51.494;11.974;2022-12-18T03:00:43;-7.00;99.90
9971;DHT22;5026;51.494;11.974;2022-12-18T03:03:18;-7.20;99.90
9971;DHT22;5026;51.494;11.974;2022-12-18T03:05:51;-7.50;99.90
9971;DHT22;5026;51.494;11.974;2022-12-18T03:08:21;-7.60;99.90
9971;DHT22;5026;51.494;11.974;2022-12-18T03:10:53;-7.60;99.90
9971;DHT22;5026;51.494;11.974;2022-12-18T03:13:26;-7.50;99.90
9971;DHT22;5026;51.494;11.974;2022-12-18T03:15:58;-7.40;99.90
9971;DHT22;5026;51.494;11.974;2022-12-18T03:18:29;-7.30;99.90
9971;DHT22;5026;51.494;11.974;2022-12-18T03:20:59;-7.30;99.90
9971;DHT22;5026;51.494;11.974;2022-12-18T03:23:33;-7.50;99.90
9971;DHT22;5026;51.494;11.974;2022-12-18T03:26:09;-7.50;99.90
9971;DHT22;5026;51.494;11.974;2022-12-18T03:28:39;-7.50;99.90
9971;DHT22;5026;51.494;11.974;2022-12-18T03:31:10;-7.50;99.90
9971;DHT22;5026;51.494;11.974;2022-12-18T03:33:41;-7.40;99.90
9971;DHT22;5026;51.494;11.974;2022-12-18T03:36:09;-7.30;99.90
9971;DHT22;5026;51.494;11.974;2022-12-18T03:41:10;-7.60;99.90
9971;DHT22;5026;51.494;11.974;2022-12-18T03:43:46;-7.70;99.90
9971;DHT22;5026;51.494;11.974;2022-12-18T03:46:21;-7.50;99.90
9971;DHT22;5026;51.494;11.974;2022-12-18T03:48:55;-7.50;99.90
9971;DHT22;5026;51.494;11.974;2022-12-18T03:51:26;-7.70;99.90
9971;DHT22;5026;51.494;11.974;2022-12-18T03:53:58;-7.60;99.90
9971;DHT22;5026;51.494;11.974;2022-12-18T03:56:29;-7.60;99.90
9971;DHT22;5026;51.494;11.974;2022-12-18T03:58:58;-7.60;99.90
9971;DHT22;5026;51.494;11.974;2022-12-18T04:01:30;-7.80;99.90
9971;DHT22;5026;51.494;11.974;2022-12-18T04:03:59;-7.80;99.90
9971;DHT22;5026;51.494;11.974;2022-12-18T04:13:48;-7.80;99.90
9971;DHT22;5026;51.494;11.974;2022-12-18T04:18:43;-8.40;99.90
9971;DHT22;5026;51.494;11.974;2022-12-18T04:21:10;-8.60;99.90
9971;DHT22;5026;51.494;11.974;2022-12-18T04:23:37;-8.60;99.90
9971;DHT22;5026;51.494;11.974;2022-12-18T04:26:04;-8.50;99.90
9971;DHT22;5026;51.494;11.974;2022-12-18T04:30:58;-8.20;99.90
9971;DHT22;5026;51.494;11.974;2022-12-18T04:35:54;-8.20;99.90
9971;DHT22;5026;51.494;11.974;2022-12-18T04:43:15;-8.50;99.90
9971;DHT22;5026;51.494;11.974;2022-12-18T04:45:42;-8.40;99.90
9971;DHT22;5026;51.494;11.974;2022-12-18T04:53:05;-8.20;99.90
9971;DHT22;5026;51.494;11.974;2022-12-18T04:55:32;-8.10;99.90
9971;DHT22;5026;51.494;11.974;2022-12-18T05:00:26;-7.90;99.90
9971;DHT22;5026;51.494;11.974;2022-12-18T05:07:47;-8.10;99.90
9971;DHT22;5026;51.494;11.974;2022-12-18T05:10:16;-8.40;99.90
9971;DHT22;5026;51.494;11.974;2022-12-18T05:15:26;-8.20;99.90
9971;DHT22;5026;51.494;11.974;2022-12-18T05:25:16;-8.20;99.90
9971;DHT22;5026;51.494;11.974;2022-12-18T05:27:43;-8.10;99.90
9971;DHT22;5026;51.494;11.974;2022-12-18T05:30:11;-8.20;99.90
9971;DHT22;5026;51.494;11.974;2022-12-18T05:32:38;-8.00;99.90
9971;DHT22;5026;51.494;11.974;2022-12-18T05:35:07;-8.10;99.90
9971;DHT22;5026;51.494;11.974;2022-12-18T05:37:35;-8.10;99.90
9971;DHT22;5026;51.494;11.974;2022-12-18T05:40:02;-8.10;99.90
9971;DHT22;5026;51.494;11.974;2022-12-18T05:42:31;-8.10;99.90
9971;DHT22;5026;51.494;11.974;2022-12-18T05:49:52;-8.10;99.90
9971;DHT22;5026;51.494;11.974;2022-12-18T05:52:19;-8.10;99.90
9971;DHT22;5026;51.494;11.974;2022-12-18T05:54:46;-8.10;99.90
9971;DHT22;5026;51.494;11.974;2022-12-18T05:57:13;-8.10;99.90
9971;DHT22;5026;51.494;11.974;2022-12-18T05:59:41;-8.10;99.90
9971;DHT22;5026;51.494;11.974;2022-12-18T06:02:08;-8.20;99.90
9971;DHT22;5026;51.494;11.974;2022-12-18T06:04:35;-8.10;99.90
9971;DHT22;5026;51.494;11.974;2022-12-18T06:07:01;-8.00;99.90
9971;DHT22;5026;51.494;11.974;2022-12-18T06:09:29;-7.90;99.90
9971;DHT22;5026;51.494;11.974;2022-12-18T06:16:52;-8.00;99.90
9971;DHT22;5026;51.494;11.974;2022-12-18T06:19:19;-8.00;99.90
9971;DHT22;5026;51.494;11.974;2022-12-18T06:21:46;-8.00;99.90
9971;DHT22;5026;51.494;11.974;2022-12-18T06:26:42;-8.10;99.90
9971;DHT22;5026;51.494;11.974;2022-12-18T06:29:08;-8.10;99.90
9971;DHT22;5026;51.494;11.974;2022-12-18T06:34:04;-8.10;99.90
9971;DHT22;5026;51.494;11.974;2022-12-18T06:38:59;-8.30;99.90
9971;DHT22;5026;51.494;11.974;2022-12-18T06:46:21;-8.30;99.90
9971;DHT22;5026;51.494;11.974;2022-12-18T06:48:48;-8.20;99.90
9971;DHT22;5026;51.494;11.974;2022-12-18T06:51:19;-8.30;99.90
9971;DHT22;5026;51.494;11.974;2022-12-18T06:53:47;-8.50;99.90
9971;DHT22;5026;51.494;11.974;2022-12-18T07:01:10;-8.60;99.90
9971;DHT22;5026;51.494;11.974;2022-12-18T07:08:34;-8.90;99.90
9971;DHT22;5026;51.494;11.974;2022-12-18T07:11:03;-8.90;99.90
9971;DHT22;5026;51.494;11.974;2022-12-18T07:16:04;-8.70;99.90
9971;DHT22;5026;51.494;11.974;2022-12-18T07:21:02;-8.50;99.90
9971;DHT22;5026;51.494;11.974;2022-12-18T07:26:02;-8.30;99.90
9971;DHT22;5026;51.494;11.974;2022-12-18T07:28:30;-8.10;99.90
9971;DHT22;5026;51.494;11.974;2022-12-18T07:30:57;-8.10;99.90
9971;DHT22;5026;51.494;11.974;2022-12-18T07:40:46;-7.90;99.90
9971;DHT22;5026;51.494;11.974;2022-12-18T07:43:15;-8.00;99.90
9971;DHT22;5026;51.494;11.974;2022-12-18T07:45:43;-7.90;99.90
9971;DHT22;5026;51.494;11.974;2022-12-18T07:48:10;-7.90;99.90
9971;DHT22;5026;51.494;11.974;2022-12-18T07:53:04;-7.90;99.90
9971;DHT22;5026;51.494;11.974;2022-12-18T07:55:31;-8.00;99.90
9971;DHT22;5026;51.494;11.974;2022-12-18T07:58:01;-7.90;99.90
9971;DHT22;5026;51.494;11.974;2022-12-18T08:00:30;-7.90;99.90
9971;DHT22;5026;51.494;11.974;2022-12-18T08:02:57;-7.80;99.90
9971;DHT22;5026;51.494;11.974;2022-12-18T08:05:25;-7.80;99.90
9971;DHT22;5026;51.494;11.974;2022-12-18T08:07:52;-7.90;99.90
9971;DHT22;5026;51.494;11.974;2022-12-18T08:10:19;-7.80;99.90
9971;DHT22;5026;51.494;11.974;2022-12-18T08:12:49;-7.70;99.90
9971;DHT22;5026;51.494;11.974;2022-12-18T08:15:16;-7.70;99.90
9971;DHT22;5026;51.494;11.974;2022-12-18T08:17:44;-7.80;99.90
9971;DHT22;5026;51.494;11.974;2022-12-18T08:20:12;-7.80;99.90
9971;DHT22;5026;51.494;11.974;2022-12-18T08:25:08;-7.60;99.90
9971;DHT22;5026;51.494;11.974;2022-12-18T08:27:35;-7.40;99.90
9971;DHT22;5026;51.494;11.974;2022-12-18T08:30:03;-6.90;99.90
9971;DHT22;5026;51.494;11.974;2022-12-18T08:32:30;-6.90;99.90
9971;DHT22;5026;51.494;11.974;2022-12-18T08:34:59;-6.40;99.90
9971;DHT22;5026;51.494;11.974;2022-12-18T08:37:26;-6.10;99.90
9971;DHT22;5026;51.494;11.974;2022-12-18T08:39:53;-5.70;99.90
9971;DHT22;5026;51.494;11.974;2022-12-18T08:42:20;-5.50;99.90
9971;DHT22;5026;51.494;11.974;2022-12-18T08:45:05;-5.50;99.50
9971;DHT22;5026;51.494;11.974;2022-12-18T08:47:32;-5.50;99.10
9971;DHT22;5026;51.494;11.974;2022-12-18T08:50:00;-5.40;98.80
9971;DHT22;5026;51.494;11.974;2022-12-18T08:52:27;-5.50;98.50
9971;DHT22;5026;51.494;11.974;2022-12-18T08:54:54;-5.50;98.50
9971;DHT22;5026;51.494;11.974;2022-12-18T08:57:21;-5.60;98.60
9971;DHT22;5026;51.494;11.974;2022-12-18T08:59:48;-5.30;98.90
9971;DHT22;5026;51.494;11.974;2022-12-18T09:02:14;-4.80;98.50
9971;DHT22;5026;51.494;11.974;2022-12-18T09:04:41;-4.70;98.10
9971;DHT22;5026;51.494;11.974;2022-12-18T09:07:10;-4.60;98.40
9971;DHT22;5026;51.494;11.974;2022-12-18T09:09:37;-4.50;98.00
9971;DHT22;5026;51.494;11.974;2022-12-18T09:12:03;-4.70;97.70
9971;DHT22;5026;51.494;11.974;2022-12-18T09:14:30;-4.70;97.90
9971;DHT22;5026;51.494;11.974;2022-12-18T09:16:57;-5.10;97.70
9971;DHT22;5026;51.494;11.974;2022-12-18T09:19:24;-5.50;98.00
9971;DHT22;5026;51.494;11.974;2022-12-18T09:21:51;-5.90;98.20
9971;DHT22;5026;51.494;11.974;2022-12-18T09:24:19;-6.10;98.50
9971;DHT22;5026;51.494;11.974;2022-12-18T09:29:14;-6.00;99.00
9971;DHT22;5026;51.494;11.974;2022-12-18T09:31:41;-5.90;99.00
9971;DHT22;5026;51.494;11.974;2022-12-18T09:36:35;-5.70;99.30
9971;DHT22;5026;51.494;11.974;2022-12-18T09:39:02;-5.60;99.40
9971;DHT22;5026;51.494;11.974;2022-12-18T09:41:40;-5.50;99.20
9971;DHT22;5026;51.494;11.974;2022-12-18T09:44:17;-5.50;99.30
9971;DHT22;5026;51.494;11.974;2022-12-18T09:46:48;-5.20;99.00
9971;DHT22;5026;51.494;11.974;2022-12-18T09:49:19;-5.60;99.20
9971;DHT22;5026;51.494;11.974;2022-12-18T09:51:52;-5.50;99.50
9971;DHT22;5026;51.494;11.974;2022-12-18T09:54:23;-5.40;99.50
9971;DHT22;5026;51.494;11.974;2022-12-18T09:56:53;-5.40;99.70
9971;DHT22;5026;51.494;11.974;2022-12-18T09:59:24;-5.40;99.50
9971;DHT22;5026;51.494;11.974;2022-12-18T10:01:51;-5.60;99.60
9971;DHT22;5026;51.494;11.974;2022-12-18T10:06:51;-5.60;99.90
9971;DHT22;5026;51.494;11.974;2022-12-18T10:09:27;-5.40;99.90
9971;DHT22;5026;51.494;11.974;2022-12-18T10:12:02;-5.40;99.90
9971;DHT22;5026;51.494;11.974;2022-12-18T10:14:36;-5.60;99.90
9971;DHT22;5026;51.494;11.974;2022-12-18T10:17:14;-5.50;99.90
9971;DHT22;5026;51.494;11.974;2022-12-18T10:19:48;-5.70;99.90
9971;DHT22;5026;51.494;11.974;2022-12-18T10:22:26;-5.80;99.90
9971;DHT22;5026;51.494;11.974;2022-12-18T10:24:59;-4.30;99.90
9971;DHT22;5026;51.494;11.974;2022-12-18T10:27:30;-5.80;99.90
9971;DHT22;5026;51.494;11.974;2022-12-18T10:32:26;-5.70;99.90
9971;DHT22;5026;51.494;11.974;2022-12-18T10:34:55;-5.70;99.90
9971;DHT22;5026;51.494;11.974;2022-12-18T10:37:25;-5.50;99.90
9971;DHT22;5026;51.494;11.974;2022-12-18T10:40:07;-5.60;99.90
9971;DHT22;5026;51.494;11.974;2022-12-18T10:42:36;-5.50;99.90
9971;DHT22;5026;51.494;11.974;2022-12-18T10:45:09;-5.40;99.90
9971;DHT22;5026;51.494;11.974;2022-12-18T10:50:04;-5.40;99.90
9971;DHT22;5026;51.494;11.974;2022-12-18T10:52:31;-5.30;99.90
9971;DHT22;5026;51.494;11.974;2022-12-18T10:55:04;-5.30;99.90
9971;DHT22;5026;51.494;11.974;2022-12-18T10:57:34;-5.20;99.90
9971;DHT22;5026;51.494;11.974;2022-12-18T11:00:23;-5.10;99.90
9971;DHT22;5026;51.494;11.974;2022-12-18T11:02:50;-5.10;99.90
9971;DHT22;5026;51.494;11.974;2022-12-18T11:05:28;-5.10;99.90
9971;DHT22;5026;51.494;11.974;2022-12-18T11:07:57;-5.00;99.90
9971;DHT22;5026;51.494;11.974;2022-12-18T11:10:29;-4.80;99.90
9971;DHT22;5026;51.494;11.974;2022-12-18T11:13:14;-4.80;99.90
9971;DHT22;5026;51.494;11.974;2022-12-18T11:15:45;-4.90;99.90
9971;DHT22;5026;51.494;11.974;2022-12-18T11:18:17;-4.80;99.90
9971;DHT22;5026;51.494;11.974;2022-12-18T11:20:51;-4.70;99.90
9971;DHT22;5026;51.494;11.974;2022-12-18T11:23:21;-4.80;99.90
9971;DHT22;5026;51.494;11.974;2022-12-18T11:25:59;-4.60;99.90
9971;DHT22;5026;51.494;11.974;2022-12-18T11:28:34;-4.60;99.90
9971;DHT22;5026;51.494;11.974;2022-12-18T11:31:21;-4.60;99.90
9971;DHT22;5026;51.494;11.974;2022-12-18T11:34:01;-4.40;99.90
9971;DHT22;5026;51.494;11.974;2022-12-18T11:36:32;-4.40;99.90
9971;DHT22;5026;51.494;11.974;2022-12-18T11:39:05;-4.30;99.90
9971;DHT22;5026;51.494;11.974;2022-12-18T11:41:41;-4.10;99.90
9971;DHT22;5026;51.494;11.974;2022-12-18T11:44:31;-4.20;99.90
9971;DHT22;5026;51.494;11.974;2022-12-18T11:47:08;-4.10;99.90
9971;DHT22;5026;51.494;11.974;2022-12-18T11:49:36;-4.10;99.90
9971;DHT22;5026;51.494;11.974;2022-12-18T11:52:10;-4.00;99.90
9971;DHT22;5026;51.494;11.974;2022-12-18T11:54:39;-3.90;99.90
9971;DHT22;5026;51.494;11.974;2022-12-18T11:57:13;-3.80;99.90
9971;DHT22;5026;51.494;11.974;2022-12-18T11:59:51;-3.70;99.90
9971;DHT22;5026;51.494;11.974;2022-12-18T12:02:39;-3.90;99.90
9971;DHT22;5026;51.494;11.974;2022-12-18T12:05:29;-3.80;99.90
9971;DHT22;5026;51.494;11.974;2022-12-18T12:08:03;-3.60;99.90
9971;DHT22;5026;51.494;11.974;2022-12-18T12:10:39;-3.50;99.90
9971;DHT22;5026;51.494;11.974;2022-12-18T12:13:22;-3.50;99.90
9971;DHT22;5026;51.494;11.974;2022-12-18T12:16:05;-3.40;99.90
9971;DHT22;5026;51.494;11.974;2022-12-18T12:21:35;-3.40;99.90
9971;DHT22;5026;51.494;11.974;2022-12-18T12:24:14;-3.50;99.90
9971;DHT22;5026;51.494;11.974;2022-12-18T12:26:52;-3.40;99.90
9971;DHT22;5026;51.494;11.974;2022-12-18T12:29:30;-3.30;99.90
9971;DHT22;5026;51.494;11.974;2022-12-18T12:32:11;-3.20;99.90
9971;DHT22;5026;51.494;11.974;2022-12-18T12:34:50;-3.30;99.90
9971;DHT22;5026;51.494;11.974;2022-12-18T12:37:26;-3.30;99.90
9971;DHT22;5026;51.494;11.974;2022-12-18T12:39:56;-3.30;99.90
9971;DHT22;5026;51.494;11.974;2022-12-18T12:42:33;-3.20;99.90
9971;DHT22;5026;51.494;11.974;2022-12-18T12:45:22;-3.20;99.90
9971;DHT22;5026;51.494;11.974;2022-12-18T12:47:54;-3.10;99.90
9971;DHT22;5026;51.494;11.974;2022-12-18T12:50:22;-3.10;99.90
9971;DHT22;5026;51.494;11.974;2022-12-18T12:52:52;-2.90;99.90
9971;DHT22;5026;51.494;11.974;2022-12-18T12:55:21;-2.90;99.90
9971;DHT22;5026;51.494;11.974;2022-12-18T12:57:56;-2.80;99.90
9971;DHT22;5026;51.494;11.974;2022-12-18T13:00:26;-2.80;99.90
9971;DHT22;5026;51.494;11.974;2022-12-18T13:03:00;-2.80;99.90
9971;DHT22;5026;51.494;11.974;2022-12-18T13:05:38;-2.80;99.90
9971;DHT22;5026;51.494;11.974;2022-12-18T13:08:08;-3.10;99.90
9971;DHT22;5026;51.494;11.974;2022-12-18T13:10:37;-3.20;99.90
9971;DHT22;5026;51.494;11.974;2022-12-18T13:13:07;-3.20;99.90
9971;DHT22;5026;51.494;11.974;2022-12-18T13:15:38;-3.20;99.90
9971;DHT22;5026;51.494;11.974;2022-12-18T13:18:18;-3.20;99.90
9971;DHT22;5026;51.494;11.974;2022-12-18T13:21:01;-3.20;99.90
9971;DHT22;5026;51.494;11.974;2022-12-18T13:23:35;-3.30;99.90
9971;DHT22;5026;51.494;11.974;2022-12-18T13:26:30;-3.30;99.90
9971;DHT22;5026;51.494;11.974;2022-12-18T13:29:00;-3.40;99.90
9971;DHT22;5026;51.494;11.974;2022-12-18T13:32:00;-3.40;99.90
9971;DHT22;5026;51.494;11.974;2022-12-18T13:34:28;-3.50;99.90
9971;DHT22;5026;51.494;11.974;2022-12-18T13:37:38;-3.80;99.90
9971;DHT22;5026;51.494;11.974;2022-12-18T13:43:23;-4.20;99.90
9971;DHT22;5026;51.494;11.974;2022-12-18T13:46:06;-4.30;99.90
9971;DHT22;5026;51.494;11.974;2022-12-18T13:48:50;-4.50;99.90
9971;DHT22;5026;51.494;11.974;2022-12-18T13:51:19;-4.40;99.90
9971;DHT22;5026;51.494;11.974;2022-12-18T13:53:51;-4.60;99.90
9971;DHT22;5026;51.494;11.974;2022-12-18T13:56:23;-4.60;99.90
9971;DHT22;5026;51.494;11.974;2022-12-18T13:59:05;-4.60;99.90
9971;DHT22;5026;51.494;11.974;2022-12-18T14:04:09;-4.70;99.90
9971;DHT22;5026;51.494;11.974;2022-12-18T14:09:05;-4.80;99.90
9971;DHT22;5026;51.494;11.974;2022-12-18T14:14:01;-4.90;99.90
9971;DHT22;5026;51.494;11.974;2022-12-18T14:16:31;-5.00;99.90
9971;DHT22;5026;51.494;11.974;2022-12-18T14:19:00;-5.00;99.90
9971;DHT22;5026;51.494;11.974;2022-12-18T14:21:28;-5.00;99.90
9971;DHT22;5026;51.494;11.974;2022-12-18T14:24:06;-5.10;99.90
9971;DHT22;5026;51.494;11.974;2022-12-18T14:29:22;-5.20;99.90
9971;DHT22;5026;51.494;11.974;2022-12-18T14:32:15;-5.30;99.90
9971;DHT22;5026;51.494;11.974;2022-12-18T14:34:43;-5.40;99.90
9971;DHT22;5026;51.494;11.974;2022-12-18T14:37:11;-5.40;99.90
9971;DHT22;5026;51.494;11.974;2022-12-18T14:39:39;-5.40;99.90
9971;DHT22;5026;51.494;11.974;2022-12-18T14:42:10;-5.50;99.90
9971;DHT22;5026;51.494;11.974;2022-12-18T14:49:33;-5.60;99.90
9971;DHT22;5026;51.494;11.974;2022-12-18T14:52:04;-5.60;99.90
9971;DHT22;5026;51.494;11.974;2022-12-18T14:54:34;-5.70;99.90
9971;DHT22;5026;51.494;11.974;2022-12-18T14:57:05;-5.70;99.90
9971;DHT22;5026;51.494;11.974;2022-12-18T14:59:32;-5.70;99.90
9971;DHT22;5026;51.494;11.974;2022-12-18T15:02:02;-5.70;99.90
9971;DHT22;5026;51.494;11.974;2022-12-18T15:04:32;-5.70;99.90
9971;DHT22;5026;51.494;11.974;2022-12-18T15:07:12;-5.80;99.90
9971;DHT22;5026;51.494;11.974;2022-12-18T15:09:41;-5.70;99.90
9971;DHT22;5026;51.494;11.974;2022-12-18T15:12:26;-5.70;99.90
9971;DHT22;5026;51.494;11.974;2022-12-18T15:17:23;-4.80;99.90
9971;DHT22;5026;51.494;11.974;2022-12-18T15:19:52;-5.20;99.90
9971;DHT22;5026;51.494;11.974;2022-12-18T15:22:23;-5.80;99.90
9971;DHT22;5026;51.494;11.974;2022-12-18T15:24:51;-5.80;99.90
9971;DHT22;5026;51.494;11.974;2022-12-18T15:27:26;-5.90;99.90
9971;DHT22;5026;51.494;11.974;2022-12-18T15:30:18;-5.80;99.90
9971;DHT22;5026;51.494;11.974;2022-12-18T15:35:17;-5.80;99.90
9971;DHT22;5026;51.494;11.974;2022-12-18T15:37:44;-5.90;99.90
9971;DHT22;5026;51.494;11.974;2022-12-18T15:40:16;-5.90;99.90
9971;DHT22;5026;51.494;11.974;2022-12-18T15:42:44;-5.80;99.90
9971;DHT22;5026;51.494;11.974;2022-12-18T15:47:56;-5.80;99.90
9971;DHT22;5026;51.494;11.974;2022-12-18T15:50:23;-5.80;99.90
9971;DHT22;5026;51.494;11.974;2022-12-18T15:52:52;-5.90;99.90
9971;DHT22;5026;51.494;11.974;2022-12-18T15:55:21;-5.90;99.90
9971;DHT22;5026;51.494;11.974;2022-12-18T15:58:09;-5.90;99.90
9971;DHT22;5026;51.494;11.974;2022-12-18T16:00:38;-5.90;99.90
9971;DHT22;5026;51.494;11.974;2022-12-18T16:08:00;-5.70;99.90
9971;DHT22;5026;51.494;11.974;2022-12-18T16:10:27;-5.70;99.90
9971;DHT22;5026;51.494;11.974;2022-12-18T16:12:54;-5.70;99.90
9971;DHT22;5026;51.494;11.974;2022-12-18T16:15:22;-5.70;99.90
9971;DHT22;5026;51.494;11.974;2022-12-18T16:20:19;-5.70;99.90
9971;DHT22;5026;51.494;11.974;2022-12-18T16:22:47;-5.70;99.90
9971;DHT22;5026;51.494;11.974;2022-12-18T16:25:18;-5.60;99.90
9971;DHT22;5026;51.494;11.974;2022-12-18T16:27:46;-5.70;99.90
9971;DHT22;5026;51.494;11.974;2022-12-18T16:30:14;-5.30;99.90
9971;DHT22;5026;51.494;11.974;2022-12-18T16:32:43;-5.70;99.90
9971;DHT22;5026;51.494;11.974;2022-12-18T16:35:11;-5.20;99.90
9971;DHT22;5026;51.494;11.974;2022-12-18T16:37:39;-5.70;99.90
9971;DHT22;5026;51.494;11.974;2022-12-18T16:40:08;-5.60;99.90
9971;DHT22;5026;51.494;11.974;2022-12-18T16:42:36;-5.70;99.90
9971;DHT22;5026;51.494;11.974;2022-12-18T16:45:05;-5.30;99.90
9971;DHT22;5026;51.494;11.974;2022-12-18T16:47:32;-5.80;99.90
9971;DHT22;5026;51.494;11.974;2022-12-18T16:50:00;-5.80;99.90
9971;DHT22;5026;51.494;11.974;2022-12-18T16:54:55;-5.80;99.90
9971;DHT22;5026;51.494;11.974;2022-12-18T16:57:22;-5.80;99.90
9971;DHT22;5026;51.494;11.974;2022-12-18T16:59:49;-5.80;99.90
9971;DHT22;5026;51.494;11.974;2022-12-18T17:02:17;-5.80;99.90
9971;DHT22;5026;51.494;11.974;2022-12-18T17:04:45;-5.80;99.90
9971;DHT22;5026;51.494;11.974;2022-12-18T17:07:14;-4.80;99.90
9971;DHT22;5026;51.494;11.974;2022-12-18T17:09:41;-5.80;99.90
9971;DHT22;5026;51.494;11.974;2022-12-18T17:12:09;-5.80;99.90
9971;DHT22;5026;51.494;11.974;2022-12-18T17:14:36;-5.70;99.90
9971;DHT22;5026;51.494;11.974;2022-12-18T17:17:03;-5.70;99.90
9971;DHT22;5026;51.494;11.974;2022-12-18T17:19:30;-5.70;99.90
9971;DHT22;5026;51.494;11.974;2022-12-18T17:21:57;-5.60;99.90
9971;DHT22;5026;51.494;11.974;2022-12-18T17:24:25;-5.60;99.90
9971;DHT22;5026;51.494;11.974;2022-12-18T17:29:20;-5.50;99.90
9971;DHT22;5026;51.494;11.974;2022-12-18T17:31:47;-3.80;99.90
9971;DHT22;5026;51.494;11.974;2022-12-18T17:34:14;-5.40;99.90
9971;DHT22;5026;51.494;11.974;2022-12-18T17:36:41;-5.40;99.90
9971;DHT22;5026;51.494;11.974;2022-12-18T17:39:16;-5.40;99.90
9971;DHT22;5026;51.494;11.974;2022-12-18T17:41:45;-5.40;99.90
9971;DHT22;5026;51.494;11.974;2022-12-18T17:44:13;-5.30;99.90
9971;DHT22;5026;51.494;11.974;2022-12-18T17:46:41;-5.40;99.90
9971;DHT22;5026;51.494;11.974;2022-12-18T17:49:09;-5.30;99.90
9971;DHT22;5026;51.494;11.974;2022-12-18T17:51:36;-5.30;99.90
9971;DHT22;5026;51.494;11.974;2022-12-18T17:54:03;-5.30;99.90
9971;DHT22;5026;51.494;11.974;2022-12-18T17:56:31;-5.30;99.90
9971;DHT22;5026;51.494;11.974;2022-12-18T17:58:59;-5.30;99.90
9971;DHT22;5026;51.494;11.974;2022-12-18T18:01:26;-5.30;99.90
9971;DHT22;5026;51.494;11.974;2022-12-18T18:03:54;-5.30;99.90
9971;DHT22;5026;51.494;11.974;2022-12-18T18:06:22;-5.20;99.90
9971;DHT22;5026;51.494;11.974;2022-12-18T18:08:49;-5.20;99.90
9971;DHT22;5026;51.494;11.974;2022-12-18T18:11:18;-5.20;99.90
9971;DHT22;5026;51.494;11.974;2022-12-18T18:14:06;-5.20;99.90
9971;DHT22;5026;51.494;11.974;2022-12-18T18:16:35;-5.10;99.90
9971;DHT22;5026;51.494;11.974;2022-12-18T18:19:05;-5.10;99.90
9971;DHT22;5026;51.494;11.974;2022-12-18T18:21:34;-4.90;99.90
9971;DHT22;5026;51.494;11.974;2022-12-18T18:24:03;-4.90;99.90
9971;DHT22;5026;51.494;11.974;2022-12-18T18:26:32;-4.90;99.90
9971;DHT22;5026;51.494;11.974;2022-12-18T18:29:00;-4.90;99.90
9971;DHT22;5026;51.494;11.974;2022-12-18T18:31:29;-4.80;99.90
9971;DHT22;5026;51.494;11.974;2022-12-18T18:33:57;-4.80;99.90
9971;DHT22;5026;51.494;11.974;2022-12-18T18:36:24;-4.80;99.90
9971;DHT22;5026;51.494;11.974;2022-12-18T18:38:51;-4.80;99.90
9971;DHT22;5026;51.494;11.974;2022-12-18T18:41:18;-4.80;99.90
9971;DHT22;5026;51.494;11.974;2022-12-18T18:43:46;-4.70;99.90
9971;DHT22;5026;51.494;11.974;2022-12-18T18:46:14;-4.70;99.90
9971;DHT22;5026;51.494;11.974;2022-12-18T18:48:43;-4.70;99.90
9971;DHT22;5026;51.494;11.974;2022-12-18T18:51:12;-4.60;99.90
9971;DHT22;5026;51.494;11.974;2022-12-18T18:53:41;-4.60;99.90
9971;DHT22;5026;51.494;11.974;2022-12-18T18:56:10;-4.60;99.90
9971;DHT22;5026;51.494;11.974;2022-12-18T18:58:37;-4.50;99.90
9971;DHT22;5026;51.494;11.974;2022-12-18T19:01:06;-4.50;99.90
9971;DHT22;5026;51.494;11.974;2022-12-18T19:03:34;-4.40;99.90
9971;DHT22;5026;51.494;11.974;2022-12-18T19:06:04;-4.40;99.90
9971;DHT22;5026;51.494;11.974;2022-12-18T19:08:34;-4.40;99.90
9971;DHT22;5026;51.494;11.974;2022-12-18T19:11:03;-4.30;99.90
9971;DHT22;5026;51.494;11.974;2022-12-18T19:13:32;-4.30;99.90
9971;DHT22;5026;51.494;11.974;2022-12-18T19:16:03;-4.30;99.90
9971;DHT22;5026;51.494;11.974;2022-12-18T19:18:30;-4.30;99.90
9971;DHT22;5026;51.494;11.974;2022-12-18T19:20:59;-4.30;99.90
9971;DHT22;5026;51.494;11.974;2022-12-18T19:23:28;-4.20;99.90
9971;DHT22;5026;51.494;11.974;2022-12-18T19:25:58;-4.20;99.90
9971;DHT22;5026;51.494;11.974;2022-12-18T19:28:26;-4.30;99.90
9971;DHT22;5026;51.494;11.974;2022-12-18T19:30:54;-4.20;99.90
9971;DHT22;5026;51.494;11.974;2022-12-18T19:33:22;-4.20;99.90
9971;DHT22;5026;51.494;11.974;2022-12-18T19:35:49;-4.20;99.90